Time;durP1;ratioP1;P1;durP2;ratioP2;P2;SDS_P1;SDS_P2;PMS_P1;PMS_P2;Temp;Humidity;BMP_temperature;BMP_pressure;BME280_temperature;BME280_humidity;BME280_pressure;Samples;Min_cycle;Max_cycle;Signal;HPM_P1;HPM_P2
2022/08/08 00:01:37;;;;;;;3.80;2.10;;;;;;;;;;110642;1252;34712;-33
2022/08/08 00:04:18;;;;;;;4.30;2.30;;;;;;;;;;110643;1253;35003;-33
2022/08/08 00:06:57;;;;;;;4.60;2.20;;;;;;;;;;110626;1253;34522;-33
2022/08/08 00:09:40;;;;;;;4.20;2.20;;;;;;;;;;110631;1244;34864;-33
2022/08/08 00:12:18;;;;;;;4.10;2.10;;;;;;;;;;110623;1253;33121;-33
2022/08/08 00:14:57;;;;;;;4.30;2.20;;;;;;;;;;110668;1252;34972;-33
2022/08/08 00:17:41;;;;;;;4.10;2.00;;;;;;;;;;110659;1252;34857;-33
2022/08/08 00:20:12;;;;;;;;;;;;;;;;;;110670;1253;35138;-33
2022/08/08 00:22:48;;;;;;;4.20;2.60;;;;;;;;;;110647;1244;34995;-33
2022/08/08 00:25:25;;;;;;;5.30;2.40;;;;;;;;;;110650;1251;35117;-33
2022/08/08 00:28:01;;;;;;;5.20;2.70;;;;;;;;;;110635;1253;34842;-33
2022/08/08 00:30:37;;;;;;;5.20;2.20;;;;;;;;;;110630;1252;34688;-33
2022/08/08 00:33:17;;;;;;;5.40;2.30;;;;;;;;;;110660;1247;34821;-33
2022/08/08 00:35:57;;;;;;;4.30;2.60;;;;;;;;;;110619;1252;34347;-33
2022/08/08 00:38:49;;;;;;;4.60;2.80;;;;;;;;;;110620;1247;34784;-33
2022/08/08 00:42:21;;;;;;;5.20;2.40;;;;;;;;;;110633;1252;33979;-33
2022/08/08 00:45:33;;;;;;;4.60;2.60;;;;;;;;;;110394;1251;33188;-33
2022/08/08 00:48:28;;;;;;;4.80;2.60;;;;;;;;;;110477;1253;35104;-33
2022/08/08 00:51:53;;;;;;;5.80;2.70;;;;;;;;;;110641;1252;35620;-33
2022/08/08 00:54:57;;;;;;;;;;;;;;;;;;110651;1244;33480;-33
2022/08/08 00:58:39;;;;;;;4.40;2.50;;;;;;;;;;110538;1252;34542;-33
2022/08/08 01:01:19;;;;;;;5.30;2.50;;;;;;;;;;110083;1253;33226;-33
2022/08/08 01:04:36;;;;;;;4.90;2.70;;;;;;;;;;110124;1259;33234;-33
2022/08/08 01:07:41;;;;;;;4.50;2.70;;;;;;;;;;110646;1244;34814;-33
2022/08/08 01:11:07;;;;;;;4.30;2.60;;;;;;;;;;110637;1252;34855;-33
2022/08/08 01:14:38;;;;;;;4.60;2.60;;;;;;;;;;110545;1254;34884;-33
2022/08/08 01:17:52;;;;;;;4.10;2.50;;;;;;;;;;110574;1253;34014;-33
2022/08/08 01:20:49;;;;;;;5.00;2.80;;;;;;;;;;110637;1253;33405;-33
2022/08/08 01:23:59;;;;;;;4.70;2.50;;;;;;;;;;110646;1251;34994;-33
2022/08/08 01:27:13;;;;;;;4.70;2.50;;;;;;;;;;110632;1251;34219;-33
2022/08/08 01:30:27;;;;;;;5.90;2.80;;;;;;;;;;110635;1252;35027;-33
2022/08/08 01:33:38;;;;;;;4.80;2.70;;;;;;;;;;110654;1253;34880;-33
2022/08/08 01:36:40;;;;;;;4.40;2.90;;;;;;;;;;110588;1254;34835;-33
2022/08/08 01:39:33;;;;;;;5.00;2.60;;;;;;;;;;110645;1253;35155;-33
2022/08/08 01:42:11;;;;;;;5.10;2.90;;;;;;;;;;110681;1252;34852;-33
2022/08/08 01:45:24;;;;;;;5.30;2.70;;;;;;;;;;110687;1253;35412;-33
2022/08/08 01:48:05;;;;;;;4.60;2.70;;;;;;;;;;110563;1254;34146;-33
2022/08/08 01:50:57;;;;;;;5.50;2.50;;;;;;;;;;110662;1250;33223;-33
2022/08/08 01:53:46;;;;;;;4.20;2.60;;;;;;;;;;110617;1248;35442;-33
2022/08/08 01:56:27;;;;;;;5.00;2.30;;;;;;;;;;110619;1251;34730;-33
2022/08/08 01:59:12;;;;;;;5.20;2.80;;;;;;;;;;110667;1254;34868;-33
2022/08/08 02:02:08;;;;;;;4.10;2.40;;;;;;;;;;110661;1253;35213;-33
2022/08/08 02:04:49;;;;;;;4.90;2.40;;;;;;;;;;110629;1250;34759;-33
2022/08/08 02:07:26;;;;;;;4.90;2.70;;;;;;;;;;110615;1254;34560;-33
2022/08/08 02:10:24;;;;;;;5.40;2.60;;;;;;;;;;110632;1253;34791;-33
2022/08/08 02:13:00;;;;;;;5.20;2.90;;;;;;;;;;110642;1253;33941;-33
2022/08/08 02:15:36;;;;;;;5.50;2.80;;;;;;;;;;110520;1253;35485;-33
2022/08/08 02:18:16;;;;;;;4.50;2.40;;;;;;;;;;110683;1245;34141;-33
2022/08/08 02:23:53;;;;;;;5.40;2.50;;;;;;;;;;110648;1253;35510;-33
2022/08/08 02:26:31;;;;;;;5.30;2.80;;;;;;;;;;110605;1254;34880;-33
2022/08/08 02:29:20;;;;;;;4.30;2.60;;;;;;;;;;110613;1250;34686;-33
2022/08/08 02:32:13;;;;;;;4.70;2.70;;;;;;;;;;110586;1253;34793;-33
2022/08/08 02:35:33;;;;;;;5.30;2.30;;;;;;;;;;110659;1244;34736;-33
2022/08/08 02:38:27;;;;;;;4.50;2.40;;;;;;;;;;110118;1250;33191;-33
2022/08/08 02:41:25;;;;;;;5.10;2.60;;;;;;;;;;110628;1245;34183;-33
2022/08/08 02:45:05;;;;;;;4.70;2.50;;;;;;;;;;110325;1252;34899;-33
2022/08/08 02:48:15;;;;;;;4.80;2.40;;;;;;;;;;110278;1251;34908;-33
2022/08/08 02:51:35;;;;;;;4.60;2.10;;;;;;;;;;110615;1250;34223;-33
2022/08/08 02:54:32;;;;;;;6.70;2.70;;;;;;;;;;110624;1252;35389;-33
2022/08/08 02:58:09;;;;;;;4.60;2.60;;;;;;;;;;110627;1253;33978;-33
2022/08/08 03:01:32;;;;;;;7.30;2.50;;;;;;;;;;110620;1252;33102;-33
2022/08/08 03:04:52;;;;;;;5.90;2.50;;;;;;;;;;110446;1251;33297;-33
2022/08/08 03:08:13;;;;;;;4.70;2.50;;;;;;;;;;110532;1251;33653;-33
2022/08/08 03:11:34;;;;;;;4.40;2.60;;;;;;;;;;110612;1252;33500;-33
2022/08/08 03:14:33;;;;;;;5.90;2.60;;;;;;;;;;110514;1253;34912;-33
2022/08/08 03:17:13;;;;;;;5.50;2.70;;;;;;;;;;110594;1254;35325;-33
2022/08/08 03:20:07;;;;;;;5.80;2.70;;;;;;;;;;110630;1253;34035;-33
2022/08/08 03:22:49;;;;;;;4.70;2.50;;;;;;;;;;110637;1248;33947;-33
2022/08/08 03:25:23;;;;;;;4.90;2.40;;;;;;;;;;110637;1253;35123;-33
2022/08/08 03:28:00;;;;;;;4.80;2.80;;;;;;;;;;110636;1253;34912;-33
2022/08/08 03:30:33;;;;;;;4.00;2.40;;;;;;;;;;110611;1253;34982;-33
2022/08/08 03:33:17;;;;;;;5.30;2.70;;;;;;;;;;110621;1248;35797;-33
2022/08/08 03:35:53;;;;;;;3.80;2.30;;;;;;;;;;110626;1253;34941;-33
2022/08/08 03:38:26;;;;;;;4.00;2.30;;;;;;;;;;110636;1252;34767;-33
2022/08/08 03:40:59;;;;;;;4.70;2.60;;;;;;;;;;110617;1245;34884;-33
2022/08/08 03:43:31;;;;;;;4.50;2.50;;;;;;;;;;110640;1248;34909;-33
2022/08/08 03:46:09;;;;;;;4.60;2.70;;;;;;;;;;110643;1247;34764;-33
2022/08/08 03:48:41;;;;;;;5.50;2.80;;;;;;;;;;110626;1248;33105;-33
2022/08/08 03:51:13;;;;;;;5.00;2.40;;;;;;;;;;110595;1244;33467;-33
2022/08/08 03:53:45;;;;;;;4.90;2.40;;;;;;;;;;110611;1253;33903;-33
2022/08/08 03:56:17;;;;;;;6.00;2.90;;;;;;;;;;110617;1253;35375;-33
2022/08/08 03:58:53;;;;;;;8.30;2.80;;;;;;;;;;110627;1253;33109;-33
2022/08/08 04:01:36;;;;;;;6.40;2.80;;;;;;;;;;110659;1248;33477;-33
2022/08/08 04:04:09;;;;;;;5.30;3.00;;;;;;;;;;110642;1253;34881;-33
2022/08/08 04:06:48;;;;;;;6.30;2.90;;;;;;;;;;110613;1253;33896;-33
2022/08/08 04:09:23;;;;;;;5.60;3.10;;;;;;;;;;110607;1253;35619;-33
2022/08/08 04:11:55;;;;;;;5.80;3.00;;;;;;;;;;110626;1244;35460;-33
2022/08/08 04:14:27;;;;;;;4.60;2.90;;;;;;;;;;110492;1249;33538;-33
2022/08/08 04:17:00;;;;;;;4.80;3.00;;;;;;;;;;110656;1253;34947;-34
2022/08/08 04:19:32;;;;;;;5.00;3.10;;;;;;;;;;110296;1254;428567;-33
2022/08/08 04:22:05;;;;;;;4.60;2.80;;;;;;;;;;110597;1251;33293;-33
2022/08/08 04:24:37;;;;;;;5.50;3.20;;;;;;;;;;110659;1244;34755;-33
2022/08/08 04:27:10;;;;;;;5.50;3.10;;;;;;;;;;110644;1251;33851;-33
2022/08/08 04:29:43;;;;;;;5.40;3.10;;;;;;;;;;110616;1248;33288;-33
2022/08/08 04:32:16;;;;;;;7.20;3.30;;;;;;;;;;110630;1251;34707;-33
2022/08/08 04:34:47;;;;;;;;;;;;;;;;;;110658;1253;35003;-33
2022/08/08 04:37:19;;;;;;;5.80;3.00;;;;;;;;;;110669;1253;33224;-33
2022/08/08 04:39:51;;;;;;;6.00;3.20;;;;;;;;;;110614;1248;33500;-33
2022/08/08 04:42:26;;;;;;;6.40;3.30;;;;;;;;;;110613;1246;34851;-33
2022/08/08 04:44:58;;;;;;;6.70;3.10;;;;;;;;;;110628;1252;33644;-33
2022/08/08 04:47:31;;;;;;;6.00;3.30;;;;;;;;;;110586;1253;34074;-33
2022/08/08 04:50:04;;;;;;;7.80;3.50;;;;;;;;;;110636;1253;34805;-33
2022/08/08 04:52:36;;;;;;;5.70;3.50;;;;;;;;;;110632;1244;33191;-33
2022/08/08 04:55:10;;;;;;;7.90;3.70;;;;;;;;;;110593;1245;34932;-33
2022/08/08 04:57:43;;;;;;;6.00;4.10;;;;;;;;;;110626;1253;35024;-32
2022/08/08 05:00:17;;;;;;;6.70;3.40;;;;;;;;;;110626;1253;35343;-33
2022/08/08 05:02:49;;;;;;;6.80;3.60;;;;;;;;;;110554;1253;35773;-33
2022/08/08 05:05:22;;;;;;;7.90;3.70;;;;;;;;;;110437;1254;34858;-33
2022/08/08 05:07:53;;;;;;;;;;;;;;;;;;110519;1247;35475;-33
2022/08/08 05:10:28;;;;;;;6.90;3.80;;;;;;;;;;110455;1254;33965;-33
2022/08/08 05:13:01;;;;;;;6.30;3.80;;;;;;;;;;110443;1254;33242;-33
2022/08/08 05:15:34;;;;;;;7.40;3.60;;;;;;;;;;110433;1248;34826;-32
2022/08/08 05:18:06;;;;;;;9.00;3.70;;;;;;;;;;110464;1248;34891;-33
2022/08/08 05:20:38;;;;;;;8.20;3.90;;;;;;;;;;110448;1248;35090;-33
2022/08/08 05:23:10;;;;;;;6.80;3.50;;;;;;;;;;110447;1247;34453;-33
2022/08/08 05:25:42;;;;;;;7.20;4.30;;;;;;;;;;110424;1254;34710;-34
2022/08/08 05:28:14;;;;;;;7.80;3.50;;;;;;;;;;110461;1254;35049;-33
2022/08/08 05:30:46;;;;;;;6.50;3.80;;;;;;;;;;110442;1251;33602;-34
2022/08/08 05:33:18;;;;;;;7.50;3.80;;;;;;;;;;110450;1247;34858;-33
2022/08/08 05:35:51;;;;;;;7.50;3.80;;;;;;;;;;110421;1247;33675;-34
2022/08/08 05:38:23;;;;;;;6.50;3.70;;;;;;;;;;110426;1254;34967;-33
2022/08/08 05:40:58;;;;;;;7.80;3.90;;;;;;;;;;110439;1254;34062;-33
2022/08/08 05:43:33;;;;;;;7.30;3.40;;;;;;;;;;110458;1254;34330;-33
2022/08/08 05:46:07;;;;;;;6.40;3.30;;;;;;;;;;110425;1248;34655;-33
2022/08/08 05:48:40;;;;;;;8.20;3.90;;;;;;;;;;110431;1254;34680;-33
2022/08/08 05:51:12;;;;;;;6.90;3.40;;;;;;;;;;110445;1254;35675;-33
2022/08/08 05:53:46;;;;;;;6.30;3.80;;;;;;;;;;110400;1248;34899;-33
2022/08/08 05:56:21;;;;;;;6.50;3.40;;;;;;;;;;110465;1254;34886;-33
2022/08/08 05:59:05;;;;;;;5.60;3.40;;;;;;;;;;110347;1254;35278;-33
2022/08/08 06:01:42;;;;;;;6.60;3.50;;;;;;;;;;110448;1246;34105;-33
2022/08/08 06:04:15;;;;;;;7.50;3.60;;;;;;;;;;110416;1254;35394;-33
2022/08/08 06:06:48;;;;;;;6.40;3.80;;;;;;;;;;110438;1254;34854;-33
2022/08/08 06:09:27;;;;;;;6.50;3.70;;;;;;;;;;110436;1248;34799;-33
2022/08/08 06:12:03;;;;;;;6.40;3.80;;;;;;;;;;110441;1248;34750;-33
2022/08/08 06:14:36;;;;;;;8.90;3.80;;;;;;;;;;110439;1248;33624;-33
2022/08/08 06:17:09;;;;;;;10.00;4.60;;;;;;;;;;110405;1254;34970;-33
2022/08/08 06:19:41;;;;;;;7.90;4.00;;;;;;;;;;110442;1247;33220;-33
2022/08/08 06:22:13;;;;;;;6.30;4.20;;;;;;;;;;110401;1254;33989;-33
2022/08/08 06:24:46;;;;;;;7.90;4.30;;;;;;;;;;110419;1248;33769;-33
2022/08/08 06:27:26;;;;;;;8.80;4.30;;;;;;;;;;110428;1248;33551;-33
2022/08/08 06:30:05;;;;;;;8.70;4.40;;;;;;;;;;110432;1254;34988;-33
2022/08/08 06:32:43;;;;;;;7.30;4.00;;;;;;;;;;110434;1247;34973;-33
2022/08/08 06:35:19;;;;;;;9.00;4.20;;;;;;;;;;110469;1246;34413;-33
2022/08/08 06:37:54;;;;;;;7.90;4.00;;;;;;;;;;110444;1254;33459;-33
2022/08/08 06:40:31;;;;;;;7.50;3.30;;;;;;;;;;110418;1254;34113;-33
2022/08/08 06:43:07;;;;;;;5.10;3.30;;;;;;;;;;110439;1254;34077;-33
2022/08/08 06:45:40;;;;;;;6.20;3.10;;;;;;;;;;110431;1248;34941;-33
2022/08/08 06:48:12;;;;;;;6.80;3.90;;;;;;;;;;110452;1254;34127;-33
2022/08/08 06:50:48;;;;;;;7.80;3.70;;;;;;;;;;110435;1248;35461;-33
2022/08/08 06:53:22;;;;;;;6.40;3.20;;;;;;;;;;110451;1247;33497;-33
2022/08/08 06:55:52;;;;;;;;;;;;;;;;;;110427;1254;34228;-33
2022/08/08 06:58:25;;;;;;;5.00;3.20;;;;;;;;;;110458;1248;34961;-33
2022/08/08 07:00:58;;;;;;;6.40;3.40;;;;;;;;;;110436;1248;34800;-33
2022/08/08 07:03:51;;;;;;;4.50;2.90;;;;;;;;;;110423;1254;34784;-34
2022/08/08 07:06:28;;;;;;;5.70;3.10;;;;;;;;;;110437;1251;33691;-33
2022/08/08 07:09:06;;;;;;;4.30;2.60;;;;;;;;;;110445;1254;34874;-39
2022/08/08 07:11:42;;;;;;;5.60;2.60;;;;;;;;;;110450;1253;35462;-33
2022/08/08 07:14:22;;;;;;;4.50;2.50;;;;;;;;;;110417;1248;34413;-33
2022/08/08 07:17:07;;;;;;;4.50;2.40;;;;;;;;;;110452;1248;33670;-33
2022/08/08 07:19:44;;;;;;;5.60;2.60;;;;;;;;;;110439;1254;34910;-33
2022/08/08 07:22:21;;;;;;;5.20;2.50;;;;;;;;;;110444;1254;32658;-33
2022/08/08 07:24:58;;;;;;;5.50;2.40;;;;;;;;;;110399;1248;34840;-33
2022/08/08 07:27:34;;;;;;;5.60;2.60;;;;;;;;;;110430;1248;35475;-33
2022/08/08 07:30:09;;;;;;;4.70;2.20;;;;;;;;;;110434;1248;34899;-33
2022/08/08 07:32:42;;;;;;;4.50;2.20;;;;;;;;;;110460;1254;33638;-33
2022/08/08 07:35:16;;;;;;;4.90;2.20;;;;;;;;;;110405;1254;33637;-33
2022/08/08 07:37:50;;;;;;;4.90;2.10;;;;;;;;;;110442;1246;34187;-34
2022/08/08 07:40:25;;;;;;;4.90;2.40;;;;;;;;;;110444;1247;35434;-33
2022/08/08 07:42:58;;;;;;;4.50;2.10;;;;;;;;;;110419;1248;33330;-33
2022/08/08 07:45:30;;;;;;;4.30;2.10;;;;;;;;;;110421;1254;34777;-33
2022/08/08 07:48:04;;;;;;;4.90;2.10;;;;;;;;;;110419;1254;33867;-33
2022/08/08 07:50:38;;;;;;;3.90;1.90;;;;;;;;;;110422;1254;33204;-33
2022/08/08 07:53:18;;;;;;;4.60;2.40;;;;;;;;;;110451;1254;34839;-33
2022/08/08 07:55:52;;;;;;;4.90;2.20;;;;;;;;;;110452;1248;34906;-33
2022/08/08 07:58:31;;;;;;;5.10;2.20;;;;;;;;;;110448;1254;34314;-33
2022/08/08 08:01:09;;;;;;;4.90;2.20;;;;;;;;;;110466;1254;35027;-33
2022/08/08 08:03:49;;;;;;;6.60;2.20;;;;;;;;;;110459;1248;33641;-33
2022/08/08 08:06:23;;;;;;;4.90;2.20;;;;;;;;;;110443;1254;35124;-33
2022/08/08 08:09:03;;;;;;;5.40;2.00;;;;;;;;;;110433;1247;34649;-33
2022/08/08 08:11:44;;;;;;;3.90;1.80;;;;;;;;;;110435;1253;35764;-33
2022/08/08 08:14:19;;;;;;;3.70;1.80;;;;;;;;;;110422;1247;33419;-33
2022/08/08 08:16:51;;;;;;;3.60;1.70;;;;;;;;;;110450;1247;35498;-34
2022/08/08 08:19:30;;;;;;;4.10;1.70;;;;;;;;;;110413;1247;32936;-33
2022/08/08 08:22:05;;;;;;;4.10;1.60;;;;;;;;;;110505;1246;33264;-33
2022/08/08 08:24:37;;;;;;;3.70;1.80;;;;;;;;;;110476;1247;35342;-33
2022/08/08 08:27:09;;;;;;;4.90;1.70;;;;;;;;;;110442;1247;34888;-33
2022/08/08 08:29:41;;;;;;;4.00;1.60;;;;;;;;;;110398;1254;33249;-33
2022/08/08 08:32:13;;;;;;;3.90;1.60;;;;;;;;;;110442;1254;33881;-43
2022/08/08 08:34:45;;;;;;;3.50;1.30;;;;;;;;;;110464;1254;33933;-33
2022/08/08 08:37:19;;;;;;;5.10;1.50;;;;;;;;;;110443;1254;35455;-33
2022/08/08 08:39:51;;;;;;;3.90;1.40;;;;;;;;;;110449;1254;34864;-33
2022/08/08 08:42:25;;;;;;;4.40;1.40;;;;;;;;;;110455;1254;34776;-34
2022/08/08 08:44:58;;;;;;;5.00;1.60;;;;;;;;;;110435;1254;34158;-33
2022/08/08 08:47:30;;;;;;;3.70;1.40;;;;;;;;;;110425;1254;35008;-33
2022/08/08 08:50:02;;;;;;;3.60;1.40;;;;;;;;;;110477;1247;34351;-33
2022/08/08 08:52:35;;;;;;;4.20;2.10;;;;;;;;;;110465;1251;34961;-33
2022/08/08 08:55:14;;;;;;;4.70;1.60;;;;;;;;;;110421;1254;35098;-33
2022/08/08 08:57:50;;;;;;;5.00;1.60;;;;;;;;;;110437;1254;34985;-33
2022/08/08 09:00:26;;;;;;;3.90;1.50;;;;;;;;;;110481;1247;34986;-37
2022/08/08 09:03:01;;;;;;;3.80;1.30;;;;;;;;;;110466;1248;33519;-37
2022/08/08 09:05:39;;;;;;;4.40;1.60;;;;;;;;;;110468;1254;33953;-36
2022/08/08 09:08:12;;;;;;;3.50;1.30;;;;;;;;;;110467;1247;33283;-36
2022/08/08 09:10:44;;;;;;;4.50;1.30;;;;;;;;;;110482;1248;33176;-34
2022/08/08 09:13:17;;;;;;;4.40;1.50;;;;;;;;;;110481;1254;34912;-36
2022/08/08 09:15:49;;;;;;;4.60;2.00;;;;;;;;;;110468;1254;35079;-34
2022/08/08 09:18:22;;;;;;;2.90;1.10;;;;;;;;;;110490;1254;34531;-33
2022/08/08 09:20:55;;;;;;;4.00;1.30;;;;;;;;;;110481;1254;35095;-36
2022/08/08 09:23:28;;;;;;;3.40;1.20;;;;;;;;;;110493;1254;34472;-36
2022/08/08 09:26:07;;;;;;;3.90;1.30;;;;;;;;;;110493;1248;33294;-36
2022/08/08 09:28:41;;;;;;;3.40;1.20;;;;;;;;;;110501;1254;35127;-36
2022/08/08 09:31:24;;;;;;;4.40;1.50;;;;;;;;;;110512;1254;35473;-36
2022/08/08 09:33:57;;;;;;;3.20;1.40;;;;;;;;;;110507;1248;34240;-35
2022/08/08 09:36:27;;;;;;;;;;;;;;;;;;110563;1246;35136;-36
2022/08/08 09:39:05;;;;;;;4.20;1.20;;;;;;;;;;110492;1248;34560;-36
2022/08/08 09:41:41;;;;;;;3.30;1.20;;;;;;;;;;110537;1254;35617;-37
2022/08/08 09:44:21;;;;;;;2.90;1.30;;;;;;;;;;110497;1253;35691;-34
2022/08/08 09:46:53;;;;;;;4.00;1.30;;;;;;;;;;110507;1254;34979;-34
2022/08/08 09:49:25;;;;;;;4.40;1.20;;;;;;;;;;110473;1247;35207;-37
2022/08/08 09:51:58;;;;;;;5.30;1.90;;;;;;;;;;110532;1253;34796;-35
2022/08/08 09:54:42;;;;;;;3.70;1.30;;;;;;;;;;110611;1253;34774;-34
2022/08/08 09:57:20;;;;;;;4.20;1.30;;;;;;;;;;110601;1253;35002;-35
2022/08/08 09:59:53;;;;;;;4.20;1.60;;;;;;;;;;110570;1247;35369;-36
2022/08/08 10:02:35;;;;;;;2.80;1.40;;;;;;;;;;110604;1249;35667;-36
2022/08/08 10:05:11;;;;;;;5.30;1.30;;;;;;;;;;110591;1253;34666;-37
2022/08/08 10:07:57;;;;;;;3.20;1.10;;;;;;;;;;110512;1253;33140;-35
2022/08/08 10:10:32;;;;;;;2.40;1.10;;;;;;;;;;110509;1253;33234;-34
2022/08/08 10:13:18;;;;;;;3.00;1.10;;;;;;;;;;110620;1253;33775;-34
2022/08/08 10:15:52;;;;;;;3.60;1.40;;;;;;;;;;110563;1253;34763;-34
2022/08/08 10:18:29;;;;;;;2.70;1.20;;;;;;;;;;110583;1253;34610;-36
2022/08/08 10:21:07;;;;;;;3.00;1.30;;;;;;;;;;110567;1253;35317;-35
2022/08/08 10:23:51;;;;;;;3.10;1.30;;;;;;;;;;110595;1253;33262;-34
2022/08/08 10:26:28;;;;;;;3.30;1.40;;;;;;;;;;110591;1246;34967;-34
2022/08/08 10:29:06;;;;;;;3.60;1.50;;;;;;;;;;110524;1251;34831;-34
2022/08/08 10:34:31;;;;;;;2.60;1.20;;;;;;;;;;110549;1251;34778;-33
2022/08/08 10:37:03;;;;;;;3.80;1.20;;;;;;;;;;110605;1251;34943;-34
2022/08/08 10:39:45;;;;;;;2.90;1.00;;;;;;;;;;110617;1247;34933;-35
2022/08/08 10:42:20;;;;;;;3.70;1.30;;;;;;;;;;110548;1251;35526;-40
2022/08/08 10:45:01;;;;;;;1.60;0.80;;;;;;;;;;110607;1247;33379;-35
2022/08/08 10:47:33;;;;;;;2.20;1.10;;;;;;;;;;110571;1251;34903;-35
2022/08/08 10:50:08;;;;;;;3.10;1.10;;;;;;;;;;110615;1251;34905;-35
2022/08/08 10:52:43;;;;;;;2.50;0.90;;;;;;;;;;110562;1244;35331;-33
2022/08/08 10:55:18;;;;;;;3.10;1.10;;;;;;;;;;110524;1244;34918;-33
2022/08/08 10:57:51;;;;;;;2.00;0.80;;;;;;;;;;110611;1251;33029;-32
2022/08/08 11:00:28;;;;;;;3.40;1.60;;;;;;;;;;110518;1244;34868;-34
2022/08/08 11:03:12;;;;;;;3.40;1.00;;;;;;;;;;110558;1251;35038;-34
2022/08/08 11:05:52;;;;;;;2.00;0.80;;;;;;;;;;110626;1251;35087;-36
2022/08/08 11:08:27;;;;;;;1.70;0.80;;;;;;;;;;110550;1245;34159;-35
2022/08/08 11:11:08;;;;;;;2.90;1.10;;;;;;;;;;110653;1244;33436;-39
2022/08/08 11:13:44;;;;;;;3.30;1.00;;;;;;;;;;110591;1244;33599;-33
2022/08/08 11:16:26;;;;;;;2.70;0.80;;;;;;;;;;110524;1251;35490;-36
2022/08/08 11:18:59;;;;;;;2.00;0.80;;;;;;;;;;110580;1246;33267;-35
2022/08/08 11:21:33;;;;;;;1.60;0.80;;;;;;;;;;110576;1251;35440;-37
2022/08/08 11:24:09;;;;;;;2.60;0.90;;;;;;;;;;110515;1244;34826;-36
2022/08/08 11:26:42;;;;;;;1.70;0.90;;;;;;;;;;110528;1253;34373;-36
2022/08/08 11:29:13;;;;;;;;;;;;;;;;;;110583;1245;33846;-36
2022/08/08 11:31:53;;;;;;;2.50;0.90;;;;;;;;;;110597;1248;32836;-36
2022/08/08 11:34:26;;;;;;;3.10;0.80;;;;;;;;;;110605;1244;33772;-38
2022/08/08 11:36:57;;;;;;;3.40;1.20;;;;;;;;;;110588;1247;33809;-37
2022/08/08 11:39:30;;;;;;;2.50;1.00;;;;;;;;;;110579;1251;35077;-37
2022/08/08 11:42:03;;;;;;;3.30;1.00;;;;;;;;;;110560;1253;35054;-39
2022/08/08 11:44:35;;;;;;;4.30;1.30;;;;;;;;;;110594;1247;35053;-37
2022/08/08 11:47:07;;;;;;;2.80;1.10;;;;;;;;;;110588;1243;33376;-38
2022/08/08 11:49:41;;;;;;;3.50;0.90;;;;;;;;;;110537;1247;35382;-38
2022/08/08 11:52:13;;;;;;;2.20;1.00;;;;;;;;;;110570;1251;34352;-37
2022/08/08 11:54:48;;;;;;;3.00;1.00;;;;;;;;;;110580;1244;34823;-38
2022/08/08 11:57:25;;;;;;;2.40;0.90;;;;;;;;;;110580;1244;34813;-36
2022/08/08 12:00:00;;;;;;;3.70;1.20;;;;;;;;;;110600;1244;34017;-39
2022/08/08 12:02:45;;;;;;;2.50;1.20;;;;;;;;;;110551;1247;34802;-37
2022/08/08 12:05:18;;;;;;;3.00;1.00;;;;;;;;;;110561;1244;34304;-37
2022/08/08 12:07:52;;;;;;;1.70;0.80;;;;;;;;;;110573;1251;34140;-37
2022/08/08 12:10:27;;;;;;;2.70;0.80;;;;;;;;;;110612;1244;33739;-35
2022/08/08 12:13:11;;;;;;;3.30;1.20;;;;;;;;;;110473;1253;33220;-39
2022/08/08 12:15:47;;;;;;;;;;;;;;;;;;110673;1251;33169;-35
2022/08/08 12:18:22;;;;;;;4.30;1.50;;;;;;;;;;110469;1245;33714;-36
2022/08/08 12:20:55;;;;;;;3.50;1.10;;;;;;;;;;110156;1244;511266;-37
2022/08/08 12:23:32;;;;;;;3.30;1.10;;;;;;;;;;110598;1244;35104;-38
2022/08/08 12:26:13;;;;;;;3.60;1.30;;;;;;;;;;110598;1244;32097;-39
2022/08/08 12:28:58;;;;;;;2.70;1.10;;;;;;;;;;110519;1248;35054;-36
2022/08/08 12:31:36;;;;;;;3.10;1.30;;;;;;;;;;110534;1251;34601;-36
2022/08/08 12:34:08;;;;;;;3.60;1.40;;;;;;;;;;110527;1244;34852;-35
2022/08/08 12:36:44;;;;;;;4.20;1.30;;;;;;;;;;110509;1251;34832;-36
2022/08/08 12:39:27;;;;;;;4.30;1.40;;;;;;;;;;110605;1251;33285;-35
2022/08/08 12:42:02;;;;;;;4.80;1.30;;;;;;;;;;110554;1251;34836;-35
2022/08/08 12:44:39;;;;;;;2.90;1.20;;;;;;;;;;110597;1247;34958;-35
2022/08/08 12:47:14;;;;;;;2.50;1.20;;;;;;;;;;110551;1251;34898;-38
2022/08/08 12:49:55;;;;;;;3.10;1.20;;;;;;;;;;110591;1243;34988;-39
2022/08/08 12:52:30;;;;;;;3.90;1.30;;;;;;;;;;110544;1246;34995;-38
2022/08/08 12:55:08;;;;;;;3.30;1.10;;;;;;;;;;110589;1251;34886;-37
2022/08/08 12:57:40;;;;;;;2.00;0.80;;;;;;;;;;110580;1251;34731;-36
2022/08/08 13:00:14;;;;;;;3.30;2.00;;;;;;;;;;110607;1244;35015;-37
2022/08/08 13:02:46;;;;;;;3.70;1.20;;;;;;;;;;110604;1251;34933;-38
2022/08/08 13:05:24;;;;;;;4.60;1.30;;;;;;;;;;110607;1245;34754;-35
2022/08/08 13:07:56;;;;;;;3.20;1.30;;;;;;;;;;110619;1244;33166;-35
2022/08/08 13:10:34;;;;;;;5.10;1.20;;;;;;;;;;110560;1251;34886;-36
2022/08/08 13:13:06;;;;;;;3.50;1.30;;;;;;;;;;110591;1251;34889;-37
2022/08/08 13:15:38;;;;;;;2.50;1.00;;;;;;;;;;110565;1245;35982;-35
2022/08/08 13:18:10;;;;;;;2.20;1.00;;;;;;;;;;110568;1247;35075;-36
2022/08/08 13:20:47;;;;;;;4.50;1.50;;;;;;;;;;110617;1245;34638;-35
2022/08/08 13:23:21;;;;;;;3.00;0.90;;;;;;;;;;110554;1251;35260;-38
2022/08/08 13:25:56;;;;;;;3.30;1.10;;;;;;;;;;110566;1251;35560;-40
2022/08/08 13:28:32;;;;;;;2.70;1.20;;;;;;;;;;110563;1244;32583;-36
2022/08/08 13:31:10;;;;;;;2.90;1.00;;;;;;;;;;110570;1247;35028;-36
2022/08/08 13:33:42;;;;;;;3.30;1.30;;;;;;;;;;110602;1251;34609;-36
2022/08/08 13:36:14;;;;;;;3.40;1.20;;;;;;;;;;110559;1244;33679;-36
2022/08/08 13:38:47;;;;;;;2.80;1.30;;;;;;;;;;110549;1251;35526;-36
2022/08/08 13:41:19;;;;;;;4.80;1.20;;;;;;;;;;110481;1247;34645;-36
2022/08/08 13:43:51;;;;;;;3.40;1.00;;;;;;;;;;110615;1251;35042;-36
2022/08/08 13:46:23;;;;;;;3.30;1.00;;;;;;;;;;110569;1253;34828;-38
2022/08/08 13:48:55;;;;;;;3.70;1.10;;;;;;;;;;110550;1244;34376;-36
2022/08/08 13:51:27;;;;;;;3.30;1.10;;;;;;;;;;110558;1251;33214;-36
2022/08/08 13:53:59;;;;;;;4.50;1.30;;;;;;;;;;110589;1251;33229;-34
2022/08/08 13:56:36;;;;;;;3.90;1.20;;;;;;;;;;110589;1245;34905;-39
2022/08/08 13:59:07;;;;;;;3.70;1.10;;;;;;;;;;110624;1247;34978;-35
2022/08/08 14:01:39;;;;;;;2.80;1.10;;;;;;;;;;110601;1251;35541;-35
2022/08/08 14:04:22;;;;;;;3.50;1.10;;;;;;;;;;110546;1252;33182;-39
2022/08/08 14:07:03;;;;;;;3.20;1.10;;;;;;;;;;110557;1244;33172;-35
2022/08/08 14:09:39;;;;;;;5.10;1.10;;;;;;;;;;110587;1246;33171;-34
2022/08/08 14:12:14;;;;;;;3.40;1.40;;;;;;;;;;110569;1248;34732;-35
2022/08/08 14:14:47;;;;;;;4.50;1.00;;;;;;;;;;110585;1251;33204;-39
2022/08/08 14:17:22;;;;;;;5.80;1.30;;;;;;;;;;110623;1251;35317;-38
2022/08/08 14:20:02;;;;;;;3.70;1.10;;;;;;;;;;110657;1243;35494;-37
2022/08/08 14:22:38;;;;;;;3.90;1.20;;;;;;;;;;110603;1244;35081;-36
2022/08/08 14:25:11;;;;;;;4.40;1.30;;;;;;;;;;110624;1245;33748;-38
2022/08/08 14:27:42;;;;;;;;;;;;;;;;;;110570;1253;35091;-37
2022/08/08 14:30:16;;;;;;;3.00;1.00;;;;;;;;;;110577;1251;35025;-37
2022/08/08 14:32:51;;;;;;;2.60;1.10;;;;;;;;;;110606;1244;33220;-34
2022/08/08 14:35:26;;;;;;;3.30;1.20;;;;;;;;;;110600;1244;34872;-38
2022/08/08 14:38:02;;;;;;;3.80;1.50;;;;;;;;;;110575;1247;35462;-34
2022/08/08 14:40:38;;;;;;;4.10;1.00;;;;;;;;;;110615;1251;33152;-34
2022/08/08 14:43:10;;;;;;;4.40;1.20;;;;;;;;;;110580;1251;35005;-35
2022/08/08 14:45:42;;;;;;;3.30;1.20;;;;;;;;;;110613;1251;35367;-34
2022/08/08 14:48:13;;;;;;;3.70;1.20;;;;;;;;;;110591;1251;34953;-34
2022/08/08 14:50:48;;;;;;;4.10;1.30;;;;;;;;;;110603;1245;35000;-36
2022/08/08 14:53:22;;;;;;;3.50;1.20;;;;;;;;;;110567;1251;35052;-37
2022/08/08 14:55:54;;;;;;;3.20;1.10;;;;;;;;;;110604;1251;35544;-37
2022/08/08 14:58:26;;;;;;;3.20;1.40;;;;;;;;;;110601;1247;33780;-37
2022/08/08 15:00:58;;;;;;;3.80;1.30;;;;;;;;;;110603;1251;34857;-37
2022/08/08 15:03:30;;;;;;;3.20;1.20;;;;;;;;;;110604;1247;34908;-38
2022/08/08 15:06:02;;;;;;;4.20;1.40;;;;;;;;;;110604;1251;33752;-37
2022/08/08 15:08:36;;;;;;;3.20;1.40;;;;;;;;;;110563;1251;34051;-37
2022/08/08 15:11:10;;;;;;;2.90;1.20;;;;;;;;;;110621;1245;35646;-37
2022/08/08 15:13:43;;;;;;;3.10;1.30;;;;;;;;;;110573;1244;32956;-37
2022/08/08 15:16:15;;;;;;;2.90;1.10;;;;;;;;;;110624;1245;34908;-37
2022/08/08 15:18:48;;;;;;;3.60;1.20;;;;;;;;;;110574;1251;34653;-38
2022/08/08 15:21:20;;;;;;;3.70;1.20;;;;;;;;;;110529;1247;35496;-37
2022/08/08 15:23:54;;;;;;;3.00;1.20;;;;;;;;;;110594;1251;35092;-36
2022/08/08 15:26:29;;;;;;;3.20;1.10;;;;;;;;;;110546;1251;34837;-38
2022/08/08 15:29:01;;;;;;;4.00;2.00;;;;;;;;;;110569;1251;34643;-38
2022/08/08 15:31:36;;;;;;;3.20;1.10;;;;;;;;;;110584;1251;33328;-37
2022/08/08 15:34:08;;;;;;;3.00;1.10;;;;;;;;;;110549;1251;33596;-37
2022/08/08 15:36:41;;;;;;;2.90;1.10;;;;;;;;;;110577;1251;33706;-38
2022/08/08 15:39:15;;;;;;;2.50;1.10;;;;;;;;;;110602;1246;35061;-37
2022/08/08 15:41:47;;;;;;;2.50;0.90;;;;;;;;;;110550;1251;33762;-38
2022/08/08 15:44:19;;;;;;;2.30;1.10;;;;;;;;;;110573;1253;35270;-37
2022/08/08 15:46:51;;;;;;;3.30;1.50;;;;;;;;;;110616;1251;35094;-39
2022/08/08 15:49:24;;;;;;;2.70;1.00;;;;;;;;;;110608;1251;34965;-37